North Somercotes, United Kingdom
Current Conditions -  °F | °C
As of 12:50 AM on Wednesday 28 Jan 2015 (Local Time) from EGXS Reporting Station
Overcast Overcast  
Wind Chill: 37°   Ceiling: 1900
Heat Index: 43°   Visibility: 6mi
Dew Point: 37°   Wind: 10mph
Humidity: 81%   Direction: 180°S
Pressure: 29.88"   Gusts: NA
Location:  53.45°N, 0.14°E
Report Text: EGXS 280050Z AUTO 18009KT 9999 // OVC019/// 06/03 Q1012
Loading
Personal Weather Stations






























Interactive Weather Map New forecast layout! Learn more

10-Day Weather Forecast

Advertisements
Track Severe Weather on mobile